createdAt,value
2022-12-03T00:03:29.745Z,91.19
2022-12-03T00:08:31.598Z,91.13
2022-12-03T00:13:33.221Z,91.41
2022-12-03T00:18:34.924Z,91.28
2022-12-03T00:23:41.809Z,91.28
2022-12-03T00:28:44.117Z,91.72
2022-12-03T00:33:45.763Z,92.26
2022-12-03T00:38:47.428Z,92.37
2022-12-03T00:43:49.076Z,92.15
2022-12-03T00:48:50.743Z,92.61
2022-12-03T00:53:52.459Z,92.55
2022-12-03T00:58:54.125Z,92.96
2022-12-03T01:03:55.837Z,92.54
2022-12-03T01:08:57.525Z,92.61
2022-12-03T01:13:59.129Z,92.49
2022-12-03T01:19:00.841Z,91.91
2022-12-03T01:24:02.632Z,92.59
2022-12-03T01:29:04.623Z,91.80
2022-12-03T01:34:06.270Z,91.81
2022-12-03T01:39:08.153Z,91.99
2022-12-03T01:44:17.835Z,92.01
2022-12-03T01:49:22.525Z,92.20
2022-12-03T01:54:32.867Z,91.67
2022-12-03T01:59:37.423Z,92.24
2022-12-03T02:04:39.572Z,91.84
2022-12-03T02:09:41.169Z,91.59
2022-12-03T02:14:42.899Z,91.11
2022-12-03T02:19:44.764Z,90.67
2022-12-03T02:24:54.346Z,90.39
2022-12-03T02:29:56.694Z,89.85
2022-12-03T02:34:58.305Z,90.42
2022-12-03T02:40:06.976Z,90.95
2022-12-03T02:45:13.359Z,90.75
2022-12-03T02:50:17.641Z,90.72
2022-12-03T02:55:19.870Z,91.20
2022-12-03T03:00:23.016Z,91.18
2022-12-03T03:05:25.159Z,91.28
2022-12-03T03:10:27.338Z,91.01
2022-12-03T03:15:28.995Z,90.55
2022-12-03T03:20:30.723Z,90.08
2022-12-03T03:25:32.455Z,90.17
2022-12-03T03:30:37.398Z,90.42
2022-12-03T03:35:54.588Z,89.80
2022-12-03T03:40:56.795Z,90.27
2022-12-03T03:45:58.567Z,90.92
2022-12-03T03:51:00.795Z,90.49
2022-12-03T03:56:02.485Z,90.01
2022-12-03T04:01:04.464Z,89.33
2022-12-03T04:06:06.651Z,89.72
2022-12-03T04:11:26.913Z,90.05
2022-12-03T04:16:28.852Z,89.69
2022-12-03T04:21:49.169Z,89.45
2022-12-03T04:27:09.291Z,90.27
2022-12-03T04:32:30.303Z,90.11
2022-12-03T04:37:31.913Z,89.74
2022-12-03T04:42:33.528Z,89.74
2022-12-03T04:47:39.736Z,89.47
2022-12-03T04:52:41.749Z,89.52
2022-12-03T04:57:43.414Z,89.14
2022-12-03T05:02:45.137Z,89.67
2022-12-03T05:07:47.184Z,89.56
2022-12-03T05:12:48.841Z,90.10
2022-12-03T05:17:50.483Z,89.82
2022-12-03T05:22:52.158Z,90.15
2022-12-03T05:27:53.824Z,89.60
2022-12-03T05:32:55.911Z,90.47
2022-12-03T05:37:57.528Z,89.92
2022-12-03T05:43:01.275Z,90.58
2022-12-03T05:48:04.359Z,89.62
2022-12-03T05:53:06.290Z,90.14
2022-12-03T05:58:08.206Z,89.99
2022-12-03T06:03:10.479Z,89.38
2022-12-03T06:08:12.612Z,89.27
2022-12-03T06:13:14.300Z,90.33
2022-12-03T06:18:15.940Z,89.98
2022-12-03T06:23:17.590Z,90.06
2022-12-03T06:28:19.219Z,89.37
2022-12-03T06:33:20.879Z,90.32
2022-12-03T06:38:22.556Z,89.89
2022-12-03T06:43:24.341Z,90.38
2022-12-03T06:48:26.003Z,90.36
2022-12-03T06:53:27.609Z,90.94
2022-12-03T06:58:29.242Z,90.85
2022-12-03T07:03:30.853Z,90.80
2022-12-03T07:08:32.632Z,90.70
2022-12-03T07:13:34.267Z,90.76
2022-12-03T07:18:35.975Z,90.68
2022-12-03T07:23:37.601Z,90.35
2022-12-03T07:28:39.238Z,90.93
2022-12-03T07:33:40.944Z,90.76
2022-12-03T07:38:42.615Z,90.97
2022-12-03T07:43:45.253Z,90.49
2022-12-03T07:48:46.932Z,89.23
2022-12-03T07:53:48.598Z,89.75
2022-12-03T07:58:50.395Z,89.64
2022-12-03T08:03:52.218Z,90.08
2022-12-03T08:08:54.228Z,89.51
2022-12-03T08:13:57.502Z,89.24
2022-12-03T08:18:59.195Z,89.30
2022-12-03T08:24:11.923Z,88.63
2022-12-03T08:29:16.771Z,88.91
2022-12-03T08:34:23.578Z,88.29
2022-12-03T08:39:41.527Z,88.88
2022-12-03T08:44:43.184Z,88.56
2022-12-03T08:50:17.409Z,87.82
2022-12-03T08:55:36.556Z,88.61
2022-12-03T09:00:38.729Z,88.35
2022-12-03T09:05:40.607Z,88.54
2022-12-03T09:10:42.555Z,89.33
2022-12-03T09:15:44.165Z,89.77
2022-12-03T09:20:45.793Z,89.22
2022-12-03T09:25:47.419Z,88.84
2022-12-03T09:30:49.068Z,88.73
2022-12-03T09:35:50.766Z,88.41
2022-12-03T09:40:52.923Z,87.89
2022-12-03T09:45:54.617Z,87.85
2022-12-03T09:50:56.338Z,88.39
2022-12-03T09:55:59.510Z,88.10
2022-12-03T10:01:01.323Z,88.45
2022-12-03T10:06:02.968Z,88.45
2022-12-03T10:11:04.900Z,88.51
2022-12-03T10:16:11.163Z,88.23
2022-12-03T10:21:19.087Z,88.59
2022-12-03T10:26:37.657Z,87.88
2022-12-03T10:31:39.562Z,87.40
2022-12-03T10:36:41.359Z,87.52
2022-12-03T10:41:44.377Z,87.89
2022-12-03T10:46:47.367Z,88.07
2022-12-03T10:51:49.223Z,88.35
2022-12-03T10:56:52.124Z,88.74
2022-12-03T11:01:54.024Z,88.86
2022-12-03T11:06:55.802Z,88.65
2022-12-03T11:12:06.819Z,88.42
2022-12-03T11:17:08.771Z,88.55
2022-12-03T11:22:10.491Z,88.93
2022-12-03T11:27:12.195Z,88.86
2022-12-03T11:32:38.563Z,88.38
2022-12-03T11:37:40.369Z,87.87
2022-12-03T11:42:42.125Z,86.64
2022-12-03T11:48:01.578Z,86.52
2022-12-03T11:53:13.450Z,86.60
2022-12-03T11:58:16.717Z,86.38
2022-12-03T12:03:33.411Z,86.64
2022-12-03T12:08:38.383Z,86.80
2022-12-03T12:13:40.149Z,86.59
2022-12-03T12:18:55.178Z,86.59
2022-12-03T12:23:57.555Z,86.86
2022-12-03T12:28:59.268Z,86.94
2022-12-03T12:34:01.574Z,87.87
2022-12-03T12:39:10.567Z,88.31
2022-12-03T12:44:15.428Z,88.22
2022-12-03T12:49:20.856Z,88.42
2022-12-03T12:54:22.495Z,88.57
2022-12-03T12:59:25.820Z,88.71
2022-12-03T13:04:27.563Z,88.91
2022-12-03T13:09:29.862Z,89.23
2022-12-03T13:14:35.041Z,89.32
2022-12-03T13:20:02.051Z,89.25
2022-12-03T13:25:50.580Z,89.32
2022-12-03T13:30:48.119Z,89.90
2022-12-03T13:35:52.597Z,89.96
2022-12-03T13:41:01.942Z,89.98
2022-12-03T13:46:03.624Z,91.11
2022-12-03T13:51:23.889Z,90.72
2022-12-03T13:56:29.723Z,90.96
2022-12-03T14:01:31.515Z,90.97
2022-12-03T14:06:33.711Z,90.96
2022-12-03T14:11:54.096Z,91.62
2022-12-03T14:16:59.922Z,91.60
2022-12-03T14:22:02.503Z,91.66
2022-12-03T14:27:04.226Z,91.79
2022-12-03T14:32:06.155Z,92.19
2022-12-03T14:37:07.827Z,91.98
2022-12-03T14:42:16.658Z,92.40
2022-12-03T14:47:22.332Z,91.92
2022-12-03T14:52:23.971Z,92.47
2022-12-03T14:57:25.769Z,91.64
2022-12-03T15:02:27.581Z,90.10
2022-12-03T15:07:29.249Z,89.75
2022-12-03T15:12:31.573Z,89.89
2022-12-03T15:17:33.528Z,90.49
2022-12-03T15:22:35.193Z,90.67
2022-12-03T15:27:36.814Z,90.16
2022-12-03T15:32:38.396Z,90.59
2022-12-03T15:37:40.324Z,90.39
2022-12-03T15:42:41.958Z,90.54
2022-12-03T15:47:43.875Z,90.33
2022-12-03T15:52:45.556Z,90.20
2022-12-03T15:57:47.555Z,90.24
2022-12-03T16:02:52.721Z,90.30
2022-12-03T16:07:54.727Z,90.32
2022-12-03T16:12:56.390Z,90.38
2022-12-03T16:17:58.730Z,90.13
2022-12-03T16:23:00.360Z,90.15
2022-12-03T16:28:02.000Z,90.32
2022-12-03T16:33:03.646Z,90.12
2022-12-03T16:38:05.274Z,90.10
2022-12-03T16:43:08.515Z,90.04
2022-12-03T16:48:10.154Z,89.80
2022-12-03T16:53:12.138Z,89.46
2022-12-03T16:58:13.895Z,89.47
2022-12-03T17:03:16.141Z,89.74
2022-12-03T17:08:17.902Z,89.29
2022-12-03T17:13:19.721Z,89.54
2022-12-03T17:18:22.918Z,89.30
2022-12-03T17:23:24.538Z,89.47
2022-12-03T17:28:26.143Z,89.48
2022-12-03T17:33:27.759Z,89.62
2022-12-03T17:38:32.752Z,89.49
2022-12-03T17:43:37.257Z,89.56
2022-12-03T17:48:40.524Z,89.35
2022-12-03T17:53:42.193Z,89.33
2022-12-03T17:58:43.852Z,89.39
2022-12-03T18:03:45.536Z,89.12
2022-12-03T18:08:47.343Z,88.70
2022-12-03T18:13:49.038Z,89.00
2022-12-03T18:18:56.247Z,89.13
2022-12-03T18:24:00.040Z,88.90
2022-12-03T18:29:01.746Z,89.19
2022-12-03T18:34:03.376Z,88.92
2022-12-03T18:39:10.317Z,88.97
2022-12-03T18:44:12.276Z,89.03
2022-12-03T18:49:14.286Z,89.01
2022-12-03T18:54:15.937Z,88.63
2022-12-03T18:59:17.578Z,88.70
2022-12-03T19:04:19.330Z,88.85
2022-12-03T19:09:21.222Z,88.70
2022-12-03T19:14:22.930Z,88.47
2022-12-03T19:19:27.264Z,88.64
2022-12-03T19:24:29.522Z,88.92
2022-12-03T19:29:31.138Z,88.86
2022-12-03T19:34:32.953Z,88.60
2022-12-03T19:39:34.684Z,88.79
2022-12-03T19:44:36.340Z,88.77
2022-12-03T19:49:37.946Z,88.52
2022-12-03T19:54:39.617Z,88.58
2022-12-03T19:59:42.480Z,88.75
2022-12-03T20:04:44.154Z,88.89
2022-12-03T20:09:46.076Z,88.89
2022-12-03T20:14:48.585Z,88.90
2022-12-03T20:19:51.350Z,89.05
2022-12-03T20:24:53.096Z,89.00
2022-12-03T20:29:54.998Z,89.25
2022-12-03T20:34:56.792Z,89.21
2022-12-03T20:39:58.521Z,89.38
2022-12-03T20:45:00.113Z,89.30
2022-12-03T20:50:01.757Z,89.20
2022-12-03T20:55:03.821Z,89.17
2022-12-03T21:00:06.104Z,89.27
2022-12-03T21:05:08.224Z,89.47
2022-12-03T21:10:32.859Z,89.49
2022-12-03T21:15:34.497Z,89.53
2022-12-03T21:20:43.401Z,89.66
2022-12-03T21:25:45.027Z,89.75
2022-12-03T21:30:46.735Z,90.20
2022-12-03T21:35:48.367Z,90.34
2022-12-03T21:40:50.052Z,90.24
2022-12-03T21:45:52.045Z,90.63
2022-12-03T21:51:07.902Z,90.61
2022-12-03T21:56:12.797Z,90.63
2022-12-03T22:01:17.766Z,90.22
2022-12-03T22:06:19.792Z,90.37
2022-12-03T22:11:23.334Z,91.14
2022-12-03T22:16:25.029Z,90.97
2022-12-03T22:21:27.511Z,91.21
2022-12-03T22:26:29.123Z,91.55
2022-12-03T22:31:30.799Z,91.36
2022-12-03T22:36:32.501Z,91.33
2022-12-03T22:41:34.125Z,91.66
2022-12-03T22:46:35.888Z,91.41
2022-12-03T22:51:37.657Z,91.54
2022-12-03T22:56:39.639Z,91.74
2022-12-03T23:01:41.789Z,91.83
2022-12-03T23:06:43.672Z,92.22
2022-12-03T23:11:45.496Z,92.07
2022-12-03T23:16:47.421Z,92.01
2022-12-03T23:21:49.068Z,91.90
2022-12-03T23:26:53.540Z,92.10
2022-12-03T23:31:56.980Z,92.14
2022-12-03T23:36:58.705Z,92.00
2022-12-03T23:42:00.385Z,92.09
2022-12-03T23:47:02.314Z,92.11
2022-12-03T23:52:12.012Z,91.84
2022-12-03T23:57:16.306Z,91.62
